Gardiner, MT (59030)

8:10 PM MST on February 10, 2016 (GMT -0700)
Gardiner, MT | | Change Station
CLOSE
Current Station
Personal Weather Station
Location: Gardiner, MT
Elevation: 5325 ft
Nearby Weather Stations

Elev 5325 ft 45.04 °N, 110.71 °W | Updated 15 seconds ago

Partly Cloudy
Partly Cloudy
38.5 °F
Feels Like 38 °F
N
1.1
Wind Variable Wind from WSW
Gusts 1.5 mph

Today
High -- | Low -- °F
--% Chance of Precip.
Yesterday
High -- | Low -- °F
Precip. -- in
Pressure 30.11 in
Visibility 10.0 miles
Clouds Clear
Windchill 38 °F
Dew Point 26 °F
Humidity 62%
Rainfall 0.00 in
Snow Depth Not available.
7:31 AM 5:43 PM
Waxing Crescent, 9% visible
METAR KLVM 110253Z AUTO 25015G21KT 10SM CLR 11/M06 A3013 RMK AO2 SLP194 T01111056 55005
Pressure 30.11 in
Visibility 10.0 miles
Clouds Clear
Windchill 38 °F
Dew Point 26 °F
Humidity 62%
Rainfall 0.00 in
Snow Depth Not available.
7:31 AM 5:43 PM
Waxing Crescent, 9% visible
METAR KLVM 110253Z AUTO 25015G21KT 10SM CLR 11/M06 A3013 RMK AO2 SLP194 T01111056 55005

10-Day Weather Forecast

Almanac

Astronomy

Feb. 10, 2016 Rise Set
Actual Time
Civil Twilight
Nautical Twilight
Astronomical Twilight
Moon
Length of Visible Light
Length of Day
Tomorrow will be .
, % of the Moon is Illuminated

Today's Extremes

State Highs State Lows

Community

WunderPhotos

Upload Photos

1,891,994 photos uploaded!

WunderBlog® & News

Nearby

Air Quality

  Air Quality AQ Index Pollutant
Not available.

Snow Depth

Station Depth Elevation

Earthquake Activity

City Distance Mag. Time & Date
Minimum magnitude displayed is 2.5.

Coastal Water Temperatures

Place Temperature

Stations

Nearby Weather Stations

Station Location Temp. Windchill Dew Point Humidity Wind Precip. Elev Updated Type
                   

Watches & Warnings

There are currently no watches in effect.